Terminal Aerodrome Forecast
Issued by NWS

Home | Current Version | Previous Version | Text Only | Print | Product List | Glossary On
Versions: 1 2 3 4 5 6 7 8 9 10 11 12 13 14 15 16 17 18
816
FTUS43 KDVN 221740
TAFBRL
TAF
KBRL 221740Z 2218/2318 19006KT P6SM SCT080 SCT250
     FM230000 17005KT P6SM VCTS SCT030CB SCT120
      TEMPO 2301/2303 VRB15G25KT 3SM TSRA BR BKN020CB
     FM230300 17004KT 6SM -RA BR VCTS SCT010CB OVC035
     FM230800 19003KT 3SM -RA BR OVC035
     FM231500 17006KT 6SM HZ SCT010 BKN035=

USA.gov is the U.S. government's official web portal to all federal, state and local government web resources and services.